createdAt,value
2018-12-18T00:00:07.647Z,1001.85
2018-12-18T00:01:07.807Z,1001.85
2018-12-18T00:02:07.983Z,1001.83
2018-12-18T00:03:08.152Z,1001.85
2018-12-18T00:04:08.313Z,1001.86
2018-12-18T00:05:08.538Z,1001.82
2018-12-18T00:06:08.693Z,1001.88
2018-12-18T00:07:08.867Z,1001.88
2018-12-18T00:08:09.039Z,1001.88
2018-12-18T00:09:09.199Z,1001.86
2018-12-18T00:10:09.365Z,1001.91
2018-12-18T00:11:09.527Z,1001.90
2018-12-18T00:12:09.691Z,1001.94
2018-12-18T00:13:09.866Z,1001.94
2018-12-18T00:14:10.030Z,1001.96
2018-12-18T00:15:10.187Z,1001.97
2018-12-18T00:16:10.369Z,1001.96
2018-12-18T00:17:10.523Z,1001.94
2018-12-18T00:18:10.685Z,1001.94
2018-12-18T00:19:10.861Z,1001.89
2018-12-18T00:20:11.056Z,1001.87
2018-12-18T00:21:11.250Z,1001.81
2018-12-18T00:22:11.478Z,1001.77
2018-12-18T00:23:11.509Z,1001.87
2018-12-18T00:24:11.712Z,1001.84
2018-12-18T00:25:11.880Z,1001.87
2018-12-18T00:26:12.214Z,1001.86
2018-12-18T00:27:12.251Z,1001.85
2018-12-18T00:28:12.406Z,1001.88
2018-12-18T00:29:12.570Z,1001.84
2018-12-18T00:30:12.727Z,1001.86
2018-12-18T00:31:12.909Z,1001.85
2018-12-18T00:32:13.087Z,1001.80
2018-12-18T00:33:13.239Z,1001.79
2018-12-18T00:34:13.408Z,1001.84
2018-12-18T00:35:13.571Z,1001.85
2018-12-18T00:36:13.738Z,1001.85
2018-12-18T00:37:13.907Z,1001.80
2018-12-18T00:38:14.070Z,1001.82
2018-12-18T00:39:14.255Z,1001.83
2018-12-18T00:40:14.455Z,1001.83
2018-12-18T00:41:14.702Z,1001.83
2018-12-18T00:42:14.738Z,1001.82
2018-12-18T00:43:14.896Z,1001.84
2018-12-18T00:44:15.067Z,1001.81
2018-12-18T00:45:15.219Z,1001.77
2018-12-18T00:46:15.383Z,1001.77
2018-12-18T00:47:15.559Z,1001.77
2018-12-18T00:48:15.727Z,1001.77
2018-12-18T00:49:15.885Z,1001.75
2018-12-18T00:50:16.045Z,1001.76
2018-12-18T00:51:16.205Z,1001.68
2018-12-18T00:52:16.369Z,1001.71
2018-12-18T00:53:16.545Z,1001.71
2018-12-18T00:54:16.695Z,1001.76
2018-12-18T00:55:16.863Z,1001.73
2018-12-18T00:56:17.028Z,1001.74
2018-12-18T00:57:17.184Z,1001.76
2018-12-18T00:58:17.344Z,1001.74
2018-12-18T00:59:17.505Z,1001.77
2018-12-18T01:00:17.679Z,1001.81
2018-12-18T01:01:17.867Z,1001.80
2018-12-18T01:02:18.037Z,1001.81
2018-12-18T01:03:18.202Z,1001.83
2018-12-18T01:04:18.365Z,1001.86
2018-12-18T01:05:18.534Z,1001.87
2018-12-18T01:06:18.695Z,1001.87
2018-12-18T01:07:18.859Z,1001.85
2018-12-18T01:08:19.025Z,1001.83
2018-12-18T01:09:19.200Z,1001.89
2018-12-18T01:10:19.367Z,1001.86
2018-12-18T01:11:19.534Z,1001.87
2018-12-18T01:12:19.692Z,1001.92
2018-12-18T01:13:19.850Z,1001.88
2018-12-18T01:14:20.026Z,1001.88
2018-12-18T01:15:20.187Z,1001.89
2018-12-18T01:16:20.354Z,1001.89
2018-12-18T01:17:20.532Z,1001.86
2018-12-18T01:18:20.699Z,1001.89
2018-12-18T01:19:20.868Z,1001.90
2018-12-18T01:20:21.016Z,1001.91
2018-12-18T01:21:21.179Z,1001.91
2018-12-18T01:22:21.335Z,1001.90
2018-12-18T01:23:21.502Z,1001.93
2018-12-18T01:24:21.673Z,1001.91
2018-12-18T01:25:21.914Z,1001.91
2018-12-18T01:26:21.947Z,1001.90
2018-12-18T01:27:22.118Z,1001.88
2018-12-18T01:28:22.274Z,1001.93
2018-12-18T01:29:22.450Z,1001.91
2018-12-18T01:30:22.617Z,1001.91
2018-12-18T01:31:22.774Z,1001.91
2018-12-18T01:32:22.937Z,1001.92
2018-12-18T01:33:23.108Z,1001.87
2018-12-18T01:34:23.276Z,1001.87
2018-12-18T01:35:23.439Z,1001.87
2018-12-18T01:36:23.614Z,1001.87
2018-12-18T01:37:23.775Z,1001.95
2018-12-18T01:38:23.935Z,1001.95
2018-12-18T01:39:24.092Z,1001.94
2018-12-18T01:40:24.273Z,1001.99
2018-12-18T01:41:24.427Z,1002.00
2018-12-18T01:42:24.591Z,1001.99
2018-12-18T01:43:24.757Z,1002.00
2018-12-18T01:44:24.917Z,1002.01
2018-12-18T01:45:25.078Z,1001.97
2018-12-18T01:46:25.239Z,1001.95
2018-12-18T01:47:25.406Z,1001.96
2018-12-18T01:48:25.582Z,1001.91
2018-12-18T01:49:25.742Z,1001.91
2018-12-18T01:50:25.905Z,1001.94
2018-12-18T01:51:26.067Z,1001.91
2018-12-18T01:52:26.226Z,1001.90
2018-12-18T01:53:26.389Z,1001.89
2018-12-18T01:54:26.574Z,1001.87
2018-12-18T01:55:26.736Z,1001.90
2018-12-18T01:56:26.914Z,1001.88
2018-12-18T01:57:27.077Z,1001.89
2018-12-18T01:58:27.245Z,1001.91
2018-12-18T01:59:32.479Z,1001.91
2018-12-18T02:00:27.552Z,1001.92
2018-12-18T02:01:27.712Z,1001.94
2018-12-18T02:02:27.876Z,1001.90
2018-12-18T02:03:28.043Z,1001.91
2018-12-18T02:04:28.208Z,1001.94
2018-12-18T02:05:28.356Z,1001.93
2018-12-18T02:06:28.522Z,1001.89
2018-12-18T02:07:28.683Z,1001.92
2018-12-18T02:08:28.853Z,1001.88
2018-12-18T02:09:30.230Z,1001.90
2018-12-18T02:10:29.137Z,1001.85
2018-12-18T02:11:29.298Z,1001.86
2018-12-18T02:12:29.470Z,1001.83
2018-12-18T02:13:30.335Z,1001.86
2018-12-18T02:14:30.002Z,1001.82
2018-12-18T02:15:30.229Z,1001.84
2018-12-18T02:16:30.502Z,1001.86
2018-12-18T02:17:30.294Z,1001.84
2018-12-18T02:18:32.127Z,1001.83
2018-12-18T02:19:30.655Z,1001.80
2018-12-18T02:20:30.811Z,1001.85
2018-12-18T02:21:30.977Z,1001.83
2018-12-18T02:22:31.132Z,1001.79
2018-12-18T02:23:31.309Z,1001.80
2018-12-18T02:24:31.520Z,1001.80
2018-12-18T02:25:31.560Z,1001.83
2018-12-18T02:26:35.275Z,1001.88
2018-12-18T02:27:31.862Z,1001.87
2018-12-18T02:28:32.013Z,1001.88
2018-12-18T02:29:32.178Z,1001.89
2018-12-18T02:30:32.349Z,1001.85
2018-12-18T02:31:32.535Z,1001.91
2018-12-18T02:32:32.703Z,1001.90
2018-12-18T02:33:32.878Z,1001.92
2018-12-18T02:34:33.042Z,1001.91
2018-12-18T02:35:33.227Z,1001.91
2018-12-18T02:36:33.390Z,1001.89
2018-12-18T02:37:33.591Z,1001.85
2018-12-18T02:38:33.725Z,1001.79
2018-12-18T02:39:33.894Z,1001.77
2018-12-18T02:40:34.061Z,1001.72
2018-12-18T02:41:34.255Z,1001.71
2018-12-18T02:42:34.423Z,1001.68
2018-12-18T02:43:34.580Z,1001.67
2018-12-18T02:44:34.788Z,1001.63
2018-12-18T02:45:34.972Z,1001.61
2018-12-18T02:46:35.132Z,1001.63
2018-12-18T02:47:35.302Z,1001.65
2018-12-18T02:48:35.460Z,1001.64
2018-12-18T02:49:35.616Z,1001.66
2018-12-18T02:50:35.784Z,1001.67
2018-12-18T02:51:35.943Z,1001.67
2018-12-18T02:52:36.115Z,1001.69
2018-12-18T02:53:36.260Z,1001.66
2018-12-18T02:54:36.423Z,1001.71
2018-12-18T02:55:36.594Z,1001.69
2018-12-18T02:56:36.744Z,1001.74
2018-12-18T02:57:36.908Z,1001.73
2018-12-18T02:58:37.075Z,1001.71
2018-12-18T02:59:37.239Z,1001.76
2018-12-18T03:00:37.410Z,1001.73
2018-12-18T03:01:37.580Z,1001.75
2018-12-18T03:02:37.762Z,1001.74
2018-12-18T03:03:37.930Z,1001.72
2018-12-18T03:04:38.078Z,1001.67
2018-12-18T03:05:38.253Z,1001.64
2018-12-18T03:06:38.415Z,1001.69
2018-12-18T03:07:38.606Z,1001.63
2018-12-18T03:08:38.754Z,1001.60
2018-12-18T03:09:38.913Z,1001.62
2018-12-18T03:10:39.067Z,1001.60
2018-12-18T03:11:39.244Z,1001.60
2018-12-18T03:12:39.427Z,1001.62
2018-12-18T03:13:39.575Z,1001.59
2018-12-18T03:14:39.749Z,1001.61
2018-12-18T03:15:39.909Z,1001.60
2018-12-18T03:16:40.076Z,1001.55
2018-12-18T03:17:40.237Z,1001.59
2018-12-18T03:18:40.404Z,1001.58
2018-12-18T03:19:40.551Z,1001.61
2018-12-18T03:20:40.722Z,1001.63
2018-12-18T03:21:40.896Z,1001.65
2018-12-18T03:22:41.044Z,1001.68
2018-12-18T03:23:41.203Z,1001.69
2018-12-18T03:24:41.383Z,1001.70
2018-12-18T03:25:41.557Z,1001.70
2018-12-18T03:26:41.710Z,1001.70
2018-12-18T03:27:41.862Z,1001.70
2018-12-18T03:28:42.036Z,1001.69
2018-12-18T03:29:42.201Z,1001.69
2018-12-18T03:30:42.369Z,1001.68
2018-12-18T03:31:42.547Z,1001.67
2018-12-18T03:32:42.712Z,1001.68
2018-12-18T03:33:42.895Z,1001.66
2018-12-18T03:34:43.069Z,1001.67
2018-12-18T03:35:43.225Z,1001.69
2018-12-18T03:36:43.384Z,1001.72
2018-12-18T03:37:43.563Z,1001.74
2018-12-18T03:38:43.730Z,1001.75
2018-12-18T03:39:43.888Z,1001.77
2018-12-18T03:40:44.072Z,1001.77
2018-12-18T03:41:44.245Z,1001.79
2018-12-18T03:42:44.404Z,1001.80
2018-12-18T03:43:44.566Z,1001.77
2018-12-18T03:44:44.737Z,1001.76
2018-12-18T03:45:44.958Z,1001.81
2018-12-18T03:46:45.028Z,1001.77
2018-12-18T03:47:45.193Z,1001.79
2018-12-18T03:48:45.364Z,1001.77
2018-12-18T03:49:45.520Z,1001.76
2018-12-18T03:50:45.674Z,1001.80
2018-12-18T03:51:45.846Z,1001.78
2018-12-18T03:52:46.013Z,1001.75
2018-12-18T03:53:46.193Z,1001.80
2018-12-18T03:54:46.283Z,1001.77
2018-12-18T03:55:46.442Z,1001.80
2018-12-18T03:56:46.610Z,1001.82
2018-12-18T03:57:46.763Z,1001.76
2018-12-18T03:58:46.920Z,1001.83
2018-12-18T03:59:47.083Z,1001.78
2018-12-18T04:00:47.239Z,1001.77
2018-12-18T04:01:47.411Z,1001.74
2018-12-18T04:02:47.566Z,1001.72
2018-12-18T04:03:47.737Z,1001.71
2018-12-18T04:04:47.944Z,1001.73
2018-12-18T04:05:48.002Z,1001.70
2018-12-18T04:06:48.165Z,1001.70
2018-12-18T04:07:48.334Z,1001.70
2018-12-18T04:08:48.494Z,1001.73
2018-12-18T04:09:48.662Z,1001.66
2018-12-18T04:10:48.822Z,1001.67
2018-12-18T04:11:48.987Z,1001.71
2018-12-18T04:12:49.149Z,1001.69
2018-12-18T04:13:49.316Z,1001.68
2018-12-18T04:14:49.480Z,1001.70
2018-12-18T04:15:49.634Z,1001.67
2018-12-18T04:16:49.795Z,1001.66
2018-12-18T04:17:49.976Z,1001.66
2018-12-18T04:18:50.141Z,1001.70
2018-12-18T04:19:50.308Z,1001.68
2018-12-18T04:20:50.480Z,1001.72
2018-12-18T04:21:50.640Z,1001.73
2018-12-18T04:22:50.802Z,1001.73
2018-12-18T04:23:50.965Z,1001.70
2018-12-18T04:24:51.152Z,1001.75
2018-12-18T04:25:51.298Z,1001.71
2018-12-18T04:26:51.461Z,1001.71
2018-12-18T04:27:51.627Z,1001.73
2018-12-18T04:28:51.788Z,1001.71
2018-12-18T04:29:51.954Z,1001.71
2018-12-18T04:30:52.118Z,1001.74
2018-12-18T04:31:52.289Z,1001.74
2018-12-18T04:32:52.454Z,1001.73
2018-12-18T04:33:52.618Z,1001.72
2018-12-18T04:34:52.797Z,1001.72
2018-12-18T04:35:52.959Z,1001.74
2018-12-18T04:36:53.115Z,1001.74
2018-12-18T04:37:53.284Z,1001.71
2018-12-18T04:38:53.454Z,1001.72
2018-12-18T04:39:53.618Z,1001.70
2018-12-18T04:40:53.780Z,1001.74
2018-12-18T04:41:53.941Z,1001.71
2018-12-18T04:42:54.105Z,1001.79
2018-12-18T04:43:54.269Z,1001.79
2018-12-18T04:44:54.454Z,1001.81
2018-12-18T04:45:54.604Z,1001.80
2018-12-18T04:46:54.767Z,1001.84
2018-12-18T04:47:54.931Z,1001.78
2018-12-18T04:48:55.085Z,1001.78
2018-12-18T04:49:55.251Z,1001.86
2018-12-18T04:50:55.414Z,1001.88
2018-12-18T04:51:55.594Z,1001.96
2018-12-18T04:52:55.747Z,1001.96
2018-12-18T04:53:55.912Z,1001.98
2018-12-18T04:54:56.081Z,1002.02
2018-12-18T04:55:56.239Z,1002.04
2018-12-18T04:56:56.420Z,1002.00
2018-12-18T04:57:56.592Z,1002.02
2018-12-18T04:58:56.756Z,1002.03
2018-12-18T04:59:56.914Z,1002.04
2018-12-18T05:00:57.064Z,1002.08
2018-12-18T05:01:57.226Z,1002.11
2018-12-18T05:02:57.391Z,1002.12
2018-12-18T05:03:57.561Z,1002.09
2018-12-18T05:04:57.715Z,1002.07
2018-12-18T05:05:57.883Z,1002.10
2018-12-18T05:06:58.048Z,1002.08
2018-12-18T05:07:58.207Z,1002.11
2018-12-18T05:08:58.381Z,1002.09
2018-12-18T05:09:58.534Z,1002.09
2018-12-18T05:10:58.702Z,1002.08
2018-12-18T05:11:58.858Z,1002.08
2018-12-18T05:12:59.024Z,1002.07
2018-12-18T05:13:59.207Z,1002.09
2018-12-18T05:14:59.353Z,1002.06
2018-12-18T05:15:59.516Z,1002.06
2018-12-18T05:16:59.690Z,1002.03
2018-12-18T05:17:59.838Z,1002.03
2018-12-18T05:19:00.783Z,1002.00
2018-12-18T05:20:00.194Z,1002.04
2018-12-18T05:21:00.367Z,1002.01
2018-12-18T05:22:00.542Z,1001.96
2018-12-18T05:23:00.702Z,1001.92
2018-12-18T05:24:00.866Z,1001.93
2018-12-18T05:25:01.050Z,1001.95
2018-12-18T05:26:01.156Z,1001.98
2018-12-18T05:27:01.340Z,1001.99
2018-12-18T05:28:01.511Z,1001.96
2018-12-18T05:29:01.674Z,1001.99
2018-12-18T05:30:01.822Z,1001.94
2018-12-18T05:31:01.980Z,1001.92
2018-12-18T05:32:02.158Z,1001.95
2018-12-18T05:33:02.336Z,1001.96
2018-12-18T05:34:02.478Z,1001.97
2018-12-18T05:35:02.640Z,1001.98
2018-12-18T05:36:02.797Z,1001.97
2018-12-18T05:37:02.958Z,1001.89
2018-12-18T05:38:03.128Z,1001.94
2018-12-18T05:39:03.304Z,1001.99
2018-12-18T05:40:03.477Z,1001.94
2018-12-18T05:41:03.710Z,1001.93
2018-12-18T05:42:03.822Z,1001.94
2018-12-18T05:43:04.004Z,1001.93
2018-12-18T05:44:04.169Z,1001.91
2018-12-18T05:45:04.419Z,1001.86
2018-12-18T05:46:04.503Z,1001.91
2018-12-18T05:47:04.670Z,1001.87
2018-12-18T05:48:04.842Z,1001.88
2018-12-18T05:49:05.011Z,1001.88
2018-12-18T05:50:05.184Z,1001.92
2018-12-18T05:51:05.372Z,1001.91
2018-12-18T05:52:05.556Z,1001.92
2018-12-18T05:53:05.706Z,1001.92
2018-12-18T05:54:05.885Z,1001.92
2018-12-18T05:55:06.026Z,1001.89
2018-12-18T05:56:06.203Z,1001.93
2018-12-18T05:57:06.358Z,1001.93
2018-12-18T05:58:06.525Z,1001.96
2018-12-18T05:59:06.705Z,1001.95
2018-12-18T06:00:06.865Z,1002.00
2018-12-18T06:01:07.026Z,1001.99
2018-12-18T06:02:07.194Z,1002.02
2018-12-18T06:03:09.751Z,1002.03
2018-12-18T06:04:07.768Z,1001.99
2018-12-18T06:05:08.020Z,1001.98
2018-12-18T06:06:10.922Z,1001.98
2018-12-18T06:07:08.858Z,1001.94
2018-12-18T06:08:08.663Z,1001.94
2018-12-18T06:09:08.381Z,1001.96
2018-12-18T06:10:08.679Z,1001.94
2018-12-18T06:11:09.008Z,1001.97
2018-12-18T06:12:09.168Z,1001.98
2018-12-18T06:13:09.205Z,1001.95
2018-12-18T06:14:09.568Z,1001.94
2018-12-18T06:15:09.407Z,1001.97
2018-12-18T06:16:09.645Z,1001.97
2018-12-18T06:17:09.949Z,1001.93
2018-12-18T06:18:09.861Z,1001.96
2018-12-18T06:19:10.430Z,1001.96
2018-12-18T06:20:11.022Z,1002.01
2018-12-18T06:21:10.414Z,1001.96
2018-12-18T06:22:10.584Z,1001.96
2018-12-18T06:23:10.895Z,1001.98
2018-12-18T06:24:10.897Z,1001.99
2018-12-18T06:25:10.944Z,1001.96
2018-12-18T06:26:11.114Z,1001.95
2018-12-18T06:27:11.281Z,1001.95
2018-12-18T06:28:11.454Z,1001.95
2018-12-18T06:29:11.631Z,1001.92
2018-12-18T06:30:11.828Z,1001.88
2018-12-18T06:31:12.000Z,1001.87
2018-12-18T06:32:12.205Z,1001.88
2018-12-18T06:33:12.497Z,1001.91
2018-12-18T06:34:12.535Z,1001.89
2018-12-18T06:35:12.693Z,1001.94
2018-12-18T06:36:12.856Z,1001.92
2018-12-18T06:37:13.025Z,1001.94
2018-12-18T06:38:13.194Z,1001.92
2018-12-18T06:39:13.364Z,1001.92
2018-12-18T06:40:13.544Z,1001.90
2018-12-18T06:41:13.683Z,1001.90
2018-12-18T06:42:13.847Z,1001.88
2018-12-18T06:43:14.103Z,1001.90
2018-12-18T06:44:14.165Z,1001.94
2018-12-18T06:45:14.276Z,1001.91
2018-12-18T06:46:14.433Z,1001.96
2018-12-18T06:47:14.669Z,1001.95
2018-12-18T06:48:14.879Z,1001.93
2018-12-18T06:49:14.996Z,1001.91
2018-12-18T06:50:15.770Z,1001.91
2018-12-18T06:51:15.355Z,1001.86
2018-12-18T06:52:15.526Z,1001.86
2018-12-18T06:53:15.720Z,1001.83
2018-12-18T06:54:15.904Z,1001.83
2018-12-18T06:55:16.122Z,1001.83
2018-12-18T06:56:16.301Z,1001.84
2018-12-18T06:57:16.467Z,1001.86
2018-12-18T06:58:16.643Z,1001.90
2018-12-18T06:59:16.803Z,1001.86
2018-12-18T07:00:16.974Z,1001.90
2018-12-18T07:01:17.139Z,1001.89
2018-12-18T07:02:17.336Z,1001.91
2018-12-18T07:03:17.495Z,1001.92
2018-12-18T07:04:17.664Z,1001.90
2018-12-18T07:05:18.061Z,1001.88
2018-12-18T07:06:18.053Z,1001.86
2018-12-18T07:07:18.207Z,1001.83
2018-12-18T07:08:18.379Z,1001.79
2018-12-18T07:09:18.544Z,1001.79
2018-12-18T07:10:18.948Z,1001.81
2018-12-18T07:11:18.914Z,1001.80
2018-12-18T07:12:19.090Z,1001.80
2018-12-18T07:13:19.247Z,1001.81
2018-12-18T07:14:19.412Z,1001.87
2018-12-18T07:15:19.580Z,1001.86
2018-12-18T07:16:19.741Z,1001.90
2018-12-18T07:17:19.906Z,1001.94
2018-12-18T07:18:20.064Z,1001.95
2018-12-18T07:19:20.236Z,1001.94
2018-12-18T07:20:20.394Z,1001.93
2018-12-18T07:21:20.726Z,1001.99
2018-12-18T07:22:20.695Z,1001.96
2018-12-18T07:23:20.858Z,1001.91
2018-12-18T07:24:21.302Z,1001.92
2018-12-18T07:25:21.492Z,1001.84
2018-12-18T07:26:21.560Z,1001.81
2018-12-18T07:27:21.933Z,1001.85
2018-12-18T07:28:21.777Z,1001.89
2018-12-18T07:29:22.011Z,1001.89
2018-12-18T07:30:22.221Z,1001.86
2018-12-18T07:31:22.326Z,1001.88
2018-12-18T07:32:22.513Z,1001.88
2018-12-18T07:33:22.601Z,1001.85
2018-12-18T07:34:22.803Z,1001.85
2018-12-18T07:35:23.351Z,1001.89
2018-12-18T07:36:23.092Z,1001.88
2018-12-18T07:37:23.045Z,1001.91
2018-12-18T07:38:23.485Z,1001.95
2018-12-18T07:39:23.588Z,1001.91
2018-12-18T07:40:23.595Z,1001.91
2018-12-18T07:41:23.790Z,1001.93
2018-12-18T07:42:23.973Z,1001.94
2018-12-18T07:43:24.156Z,1001.93
2018-12-18T07:44:24.263Z,1001.91
2018-12-18T07:45:24.440Z,1001.95
2018-12-18T07:46:24.648Z,1001.91
2018-12-18T07:47:24.946Z,1001.98
2018-12-18T07:48:25.013Z,1001.98
2018-12-18T07:49:24.954Z,1001.94
2018-12-18T07:50:25.119Z,1001.97
2018-12-18T07:51:25.310Z,1001.97
2018-12-18T07:52:25.752Z,1001.96
2018-12-18T07:53:25.848Z,1001.96
2018-12-18T07:54:25.740Z,1001.98
2018-12-18T07:55:25.965Z,1001.99
2018-12-18T07:56:25.958Z,1002.02
2018-12-18T07:57:26.175Z,1001.98
2018-12-18T07:58:27.695Z,1002.02
2018-12-18T07:59:26.499Z,1002.01
2018-12-18T08:00:26.656Z,1001.99
2018-12-18T08:01:26.822Z,1001.97
2018-12-18T08:02:27.034Z,1001.99
2018-12-18T08:03:27.224Z,1001.98
2018-12-18T08:04:27.383Z,1002.02
2018-12-18T08:05:29.945Z,1002.00
2018-12-18T08:06:27.674Z,1002.03
2018-12-18T08:07:27.834Z,1002.03
2018-12-18T08:08:27.998Z,1002.08
2018-12-18T08:09:28.185Z,1002.08
2018-12-18T08:10:28.347Z,1002.10
2018-12-18T08:11:28.511Z,1002.14
2018-12-18T08:12:28.721Z,1002.17
2018-12-18T08:13:28.880Z,1002.14
2018-12-18T08:14:29.081Z,1002.15
2018-12-18T08:15:29.244Z,1002.17
2018-12-18T08:16:29.405Z,1002.18
2018-12-18T08:17:29.566Z,1002.19
2018-12-18T08:18:29.737Z,1002.22
2018-12-18T08:19:29.902Z,1002.23
2018-12-18T08:20:30.078Z,1002.23
2018-12-18T08:21:30.260Z,1002.24
2018-12-18T08:22:30.500Z,1002.25
2018-12-18T08:23:30.589Z,1002.27
2018-12-18T08:24:30.786Z,1002.25
2018-12-18T08:25:30.930Z,1002.23
2018-12-18T08:26:31.118Z,1002.30
2018-12-18T08:27:31.269Z,1002.31
2018-12-18T08:28:31.448Z,1002.31
2018-12-18T08:29:31.610Z,1002.34
2018-12-18T08:30:31.798Z,1002.35
2018-12-18T08:31:31.963Z,1002.38
2018-12-18T08:32:32.200Z,1002.35
2018-12-18T08:33:32.240Z,1002.38
2018-12-18T08:34:32.425Z,1002.41
2018-12-18T08:35:36.377Z,1002.43
2018-12-18T08:36:32.817Z,1002.37
2018-12-18T08:37:32.979Z,1002.38
2018-12-18T08:38:33.177Z,1002.40
2018-12-18T08:39:33.340Z,1002.42
2018-12-18T08:40:33.510Z,1002.41
2018-12-18T08:41:33.690Z,1002.39
2018-12-18T08:42:33.907Z,1002.43
2018-12-18T08:43:34.088Z,1002.38
2018-12-18T08:44:34.241Z,1002.39
2018-12-18T08:45:34.426Z,1002.37
2018-12-18T08:46:34.577Z,1002.38
2018-12-18T08:47:34.743Z,1002.38
2018-12-18T08:48:34.913Z,1002.39
2018-12-18T08:49:35.073Z,1002.41
2018-12-18T08:50:35.232Z,1002.39
2018-12-18T08:51:35.413Z,1002.43
2018-12-18T08:52:35.581Z,1002.43
2018-12-18T08:53:35.806Z,1002.48
2018-12-18T08:54:35.932Z,1002.48
2018-12-18T08:55:36.096Z,1002.51
2018-12-18T08:56:36.424Z,1002.48
2018-12-18T08:57:36.467Z,1002.50
2018-12-18T08:58:36.634Z,1002.49
2018-12-18T08:59:36.849Z,1002.47
2018-12-18T09:00:36.973Z,1002.49
2018-12-18T09:01:37.139Z,1002.47
2018-12-18T09:02:37.318Z,1002.48
2018-12-18T09:03:37.477Z,1002.49
2018-12-18T09:04:37.644Z,1002.47
2018-12-18T09:05:43.111Z,1002.54
2018-12-18T09:06:37.980Z,1002.53
2018-12-18T09:07:38.143Z,1002.53
2018-12-18T09:08:38.320Z,1002.51
2018-12-18T09:09:38.470Z,1002.51
2018-12-18T09:10:39.870Z,1002.51
2018-12-18T09:11:38.823Z,1002.51
2018-12-18T09:12:38.970Z,1002.53
2018-12-18T09:13:39.136Z,1002.51
2018-12-18T09:14:39.301Z,1002.49
2018-12-18T09:15:39.473Z,1002.48
2018-12-18T09:16:39.647Z,1002.51
2018-12-18T09:17:42.827Z,1002.52
2018-12-18T09:18:42.824Z,1002.52
2018-12-18T09:19:40.135Z,1002.44
2018-12-18T09:20:41.269Z,1002.46
2018-12-18T09:21:40.560Z,1002.49
2018-12-18T09:22:40.720Z,1002.48
2018-12-18T09:23:41.153Z,1002.44
2018-12-18T09:24:42.491Z,1002.47
2018-12-18T09:25:41.469Z,1002.45
2018-12-18T09:26:42.045Z,1002.44
2018-12-18T09:27:41.857Z,1002.40
2018-12-18T09:28:41.574Z,1002.38
2018-12-18T09:29:41.760Z,1002.28
2018-12-18T09:30:42.736Z,1002.22
2018-12-18T09:31:42.080Z,1002.22
2018-12-18T09:32:42.253Z,1002.19
2018-12-18T09:33:42.431Z,1002.15
2018-12-18T09:34:42.598Z,1002.10
2018-12-18T09:35:42.774Z,1002.07
2018-12-18T09:36:42.934Z,1002.03
2018-12-18T09:37:43.106Z,1001.97
2018-12-18T09:38:43.342Z,1001.98
2018-12-18T09:39:43.434Z,1001.94
2018-12-18T09:40:43.609Z,1001.91
2018-12-18T09:41:43.769Z,1001.91
2018-12-18T09:42:43.983Z,1001.86
2018-12-18T09:43:44.156Z,1001.86
2018-12-18T09:44:44.348Z,1001.83
2018-12-18T09:45:44.643Z,1001.75
2018-12-18T09:46:44.867Z,1001.76
2018-12-18T09:47:45.013Z,1001.76
2018-12-18T09:48:45.257Z,1001.69
2018-12-18T09:49:45.285Z,1001.74
2018-12-18T09:50:45.155Z,1001.72
2018-12-18T09:51:45.604Z,1001.72
2018-12-18T09:52:45.684Z,1001.68
2018-12-18T09:53:45.932Z,1001.68
2018-12-18T09:54:46.000Z,1001.69
2018-12-18T09:55:46.061Z,1001.68
2018-12-18T09:56:46.095Z,1001.66
2018-12-18T09:57:46.405Z,1001.64
2018-12-18T09:58:46.448Z,1001.59
2018-12-18T09:59:46.614Z,1001.59
2018-12-18T10:00:46.783Z,1001.56
2018-12-18T10:01:46.948Z,1001.57
2018-12-18T10:02:47.292Z,1001.47
2018-12-18T10:03:47.388Z,1001.44
2018-12-18T10:04:47.381Z,1001.45
2018-12-18T10:05:47.938Z,1001.52
2018-12-18T10:06:47.834Z,1001.49
2018-12-18T10:07:48.184Z,1001.48
2018-12-18T10:08:47.979Z,1001.53
2018-12-18T10:09:48.291Z,1001.54
2018-12-18T10:10:48.502Z,1001.51
2018-12-18T10:11:48.502Z,1001.45
2018-12-18T10:12:48.768Z,1001.43
2018-12-18T10:13:48.792Z,1001.46
2018-12-18T10:14:48.971Z,1001.48
2018-12-18T10:15:49.149Z,1001.43
2018-12-18T10:16:49.561Z,1001.42
2018-12-18T10:17:49.565Z,1001.43
2018-12-18T10:18:49.922Z,1001.41
2018-12-18T10:19:49.822Z,1001.42
2018-12-18T10:20:50.111Z,1001.41
2018-12-18T10:21:50.893Z,1001.45
2018-12-18T10:22:50.917Z,1001.43
2018-12-18T10:23:50.580Z,1001.43
2018-12-18T10:24:50.793Z,1001.40
2018-12-18T10:25:51.111Z,1001.42
2018-12-18T10:26:50.989Z,1001.40
2018-12-18T10:27:51.053Z,1001.36
2018-12-18T10:28:51.230Z,1001.40
2018-12-18T10:29:51.501Z,1001.36
2018-12-18T10:30:51.606Z,1001.30
2018-12-18T10:31:51.755Z,1001.31
2018-12-18T10:32:51.924Z,1001.33
2018-12-18T10:33:52.098Z,1001.33
2018-12-18T10:34:52.264Z,1001.33
2018-12-18T10:35:52.692Z,1001.30
2018-12-18T10:36:52.751Z,1001.33
2018-12-18T10:37:53.045Z,1001.29
2018-12-18T10:38:53.067Z,1001.28
2018-12-18T10:39:53.035Z,1001.30
2018-12-18T10:40:53.848Z,1001.28
2018-12-18T10:41:55.373Z,1001.27
2018-12-18T10:42:55.392Z,1001.28
2018-12-18T10:43:54.310Z,1001.28
2018-12-18T10:44:53.859Z,1001.25
2018-12-18T10:45:54.015Z,1001.25
2018-12-18T10:46:54.174Z,1001.18
2018-12-18T10:47:54.342Z,1001.20
2018-12-18T10:48:54.597Z,1001.21
2018-12-18T10:49:55.134Z,1001.20
2018-12-18T10:50:54.960Z,1001.18
2018-12-18T10:51:55.257Z,1001.18
2018-12-18T10:52:55.443Z,1001.18
2018-12-18T10:53:55.396Z,1001.19
2018-12-18T10:54:55.622Z,1001.16
2018-12-18T10:55:55.836Z,1001.13
2018-12-18T10:56:55.959Z,1001.19
2018-12-18T10:57:55.935Z,1001.17
2018-12-18T10:58:56.354Z,1001.17
2018-12-18T10:59:56.816Z,1001.11
2018-12-18T11:00:56.586Z,1001.08
2018-12-18T11:01:56.587Z,1001.09
2018-12-18T11:02:56.921Z,1001.06
2018-12-18T11:03:56.874Z,1001.04
2018-12-18T11:04:57.392Z,1001.02
2018-12-18T11:05:57.184Z,1000.98
2018-12-18T11:06:57.368Z,1000.96
2018-12-18T11:07:57.538Z,1000.95
2018-12-18T11:08:57.706Z,1000.91
2018-12-18T11:09:57.866Z,1000.95
2018-12-18T11:10:58.028Z,1000.95
2018-12-18T11:11:58.200Z,1000.93
2018-12-18T11:12:58.380Z,1000.85
2018-12-18T11:13:58.542Z,1000.84
2018-12-18T11:14:58.713Z,1000.86
2018-12-18T11:15:58.889Z,1000.80
2018-12-18T11:16:59.212Z,1000.80
2018-12-18T11:17:59.203Z,1000.80
2018-12-18T11:18:59.385Z,1000.75
2018-12-18T11:19:59.551Z,1000.73
2018-12-18T11:20:59.720Z,1000.77
2018-12-18T11:21:59.890Z,1000.75
2018-12-18T11:23:00.063Z,1000.70
2018-12-18T11:24:00.235Z,1000.73
2018-12-18T11:25:00.407Z,1000.64
2018-12-18T11:26:00.568Z,1000.65
2018-12-18T11:27:00.744Z,1000.61
2018-12-18T11:28:00.890Z,1000.59
2018-12-18T11:29:01.081Z,1000.56
2018-12-18T11:30:01.258Z,1000.53
2018-12-18T11:31:01.397Z,1000.54
2018-12-18T11:32:01.557Z,1000.54
2018-12-18T11:33:01.781Z,1000.55
2018-12-18T11:34:01.924Z,1000.56
2018-12-18T11:35:02.089Z,1000.53
2018-12-18T11:36:02.775Z,1000.54
2018-12-18T11:37:02.441Z,1000.57
2018-12-18T11:38:02.603Z,1000.53
2018-12-18T11:39:02.775Z,1000.50
2018-12-18T11:40:02.935Z,1000.53
2018-12-18T11:41:03.099Z,1000.53
2018-12-18T11:42:03.260Z,1000.50
2018-12-18T11:43:03.429Z,1000.46
2018-12-18T11:44:03.602Z,1000.49
2018-12-18T11:45:03.772Z,1000.45
2018-12-18T11:46:03.953Z,1000.50
2018-12-18T11:47:04.102Z,1000.46
2018-12-18T11:48:04.283Z,1000.46
2018-12-18T11:49:04.836Z,1000.38
2018-12-18T11:50:04.561Z,1000.36
2018-12-18T11:51:04.737Z,1000.41
2018-12-18T11:52:04.914Z,1000.32
2018-12-18T11:53:05.076Z,1000.38
2018-12-18T11:54:05.243Z,1000.32
2018-12-18T11:55:05.397Z,1000.26
2018-12-18T11:56:05.558Z,1000.35
2018-12-18T11:57:05.768Z,1000.30
2018-12-18T11:58:05.925Z,1000.27
2018-12-18T11:59:06.105Z,1000.32
2018-12-18T12:00:06.286Z,1000.21
2018-12-18T12:01:06.441Z,1000.20
2018-12-18T12:02:06.615Z,1000.19
2018-12-18T12:03:08.503Z,1000.20
2018-12-18T12:04:06.977Z,1000.17
2018-12-18T12:05:10.490Z,1000.15
2018-12-18T12:06:07.351Z,1000.15
2018-12-18T12:07:07.518Z,1000.14